Weather History for K5H4 - March, 2014

Change the Weather History Date:

Saturday, March 29, 2014

  Actual Average (KRUG) Record (KRUG)
Temperature  
Mean Temperature 40 °F -  
Max Temperature 57 °F 41 °F 70 °F (1967)
Min Temperature 24 °F 22 °F -20 °F (1969)
Degree Days  
Heating Degree Days 24    
Moisture  
Dew Point 27 °F    
Average Humidity 63    
Maximum Humidity 93    
Minimum Humidity 33    
Precipitation  
Precipitation 0.01 in - - ()
Sea Level Pressure  
Sea Level Pressure 29.84 in    
Wind  
Wind Speed 14 mph (South)    
Max Wind Speed 30 mph    
Max Gust Speed 37 mph    
Visibility 10 miles    
Events Rain    
Averages and records for this station are not official NWS values.
T = Trace of Precipitation, MM = Missing Value Source: NWS Daily Summary

Daily Weather History Graph

Daily Weather History Graph

Search for Another Location

Airport or City:

Trip Planner

Search our weather history database for the weather conditions in past years. The results will help you decide how hot, cold, wet, or windy it might be!

Date:

Astronomy

Mar. 29, 2014 Rise Set
Actual Time 7:24 AM CDT 8:05 PM CDT
Civil Twilight 6:53 AM CDT 8:36 PM CDT
Nautical Twilight 6:16 AM CDT 9:13 PM CDT
Astronomical Twilight 5:37 AM CDT 9:52 PM CDT
Moon 6:38 AM CDT 7:10 PM CDT
Length of Visible Light 13h 43m
Length of Day
12h 41m
Waning Crescent, 2% of the Moon is Illuminated
Mar 29
Waning Crescent
Mar 30
New
Apr 7
First Quarter
Apr 15
Full
Apr 22
Last Quarter

Hourly Weather History & Observations

Time (CDT) Temp. Windchill Dew Point Humidity Pressure Visibility Wind Dir Wind Speed Gust Speed Precip Events Conditions
12:15 AM 28.4 °F 18.0 °F 23.0 °F 80% 30.09 in 10.0 mi South 12.7 mph 17.3 mph N/A   Overcast
12:35 AM 28.4 °F 18.0 °F 23.0 °F 80% 30.09 in 10.0 mi South 12.7 mph 16.1 mph N/A   Overcast
12:55 AM 28.4 °F 19.7 °F 23.0 °F 80% 30.08 in 10.0 mi South 9.2 mph - N/A   Overcast
1:15 AM 28.4 °F 18.5 °F 23.0 °F 80% 30.07 in 10.0 mi South 11.5 mph - N/A   Overcast
1:35 AM 28.4 °F 17.0 °F 21.2 °F 74% 30.07 in 10.0 mi South 15.0 mph - N/A   Overcast
1:55 AM 28.4 °F 18.0 °F 21.2 °F 74% 30.06 in 10.0 mi South 12.7 mph - N/A   Overcast
2:15 AM 28.4 °F 18.5 °F 19.4 °F 69% 30.06 in 10.0 mi South 11.5 mph - N/A   Overcast
2:35 AM 28.4 °F 17.5 °F 19.4 °F 69% 30.05 in 10.0 mi SSW 13.8 mph - N/A   Overcast
2:55 AM 30.2 °F 20.2 °F 21.2 °F 69% 30.04 in 10.0 mi SSW 12.7 mph - N/A   Overcast
3:15 AM 30.2 °F 20.2 °F 21.2 °F 69% 30.04 in 10.0 mi SSW 12.7 mph - N/A   Overcast
3:35 AM 30.2 °F 21.3 °F 23.0 °F 75% 30.03 in 10.0 mi SSW 10.4 mph - N/A   Overcast
3:55 AM 30.2 °F 20.8 °F 23.0 °F 75% 30.03 in 10.0 mi SSW 11.5 mph - N/A   Overcast
4:15 AM 30.2 °F 20.2 °F 23.0 °F 75% 30.02 in 10.0 mi SSW 12.7 mph - N/A   Overcast
4:35 AM 28.4 °F 18.0 °F 23.0 °F 80% 30.03 in 10.0 mi SW 12.7 mph 19.6 mph N/A   Overcast
4:55 AM 28.4 °F 18.0 °F 23.0 °F 80% 30.02 in 10.0 mi SSW 12.7 mph 17.3 mph N/A   Mostly Cloudy
5:15 AM 26.6 °F 16.2 °F 23.0 °F 86% 30.03 in 10.0 mi South 11.5 mph - N/A   Mostly Cloudy
5:35 AM 26.6 °F 15.7 °F 21.2 °F 80% 30.02 in 10.0 mi South 12.7 mph - N/A   Overcast
5:55 AM 24.8 °F 14.0 °F 19.4 °F 80% 30.01 in 10.0 mi South 11.5 mph - N/A   Overcast
6:15 AM 24.8 °F 12.9 °F 19.4 °F 80% 30.01 in 10.0 mi South 13.8 mph - N/A   Mostly Cloudy
6:35 AM 24.8 °F 13.4 °F 19.4 °F 80% 30.00 in 10.0 mi South 12.7 mph 19.6 mph N/A   Scattered Clouds
6:55 AM 26.6 °F 15.2 °F 19.4 °F 74% 29.99 in 10.0 mi South 13.8 mph 19.6 mph N/A   Partly Cloudy
7:15 AM 26.6 °F 15.2 °F 21.2 °F 80% 29.98 in 10.0 mi South 13.8 mph - N/A   Clear
7:35 AM 26.6 °F 15.2 °F 21.2 °F 80% 29.98 in 10.0 mi South 13.8 mph 18.4 mph N/A   Clear
7:55 AM 26.6 °F 16.2 °F 21.2 °F 80% 29.97 in 10.0 mi SSE 11.5 mph - N/A   Partly Cloudy
8:15 AM 26.6 °F 17.5 °F 23.0 °F 86% 29.96 in 10.0 mi SSE 9.2 mph - N/A   Scattered Clouds
8:35 AM 26.6 °F 16.2 °F 23.0 °F 86% 29.95 in 10.0 mi South 11.5 mph 17.3 mph N/A   Partly Cloudy
8:55 AM 28.4 °F 17.0 °F 23.0 °F 80% 29.93 in 10.0 mi SSE 15.0 mph - N/A   Scattered Clouds
9:15 AM 30.2 °F 19.8 °F 24.8 °F 80% 29.91 in 10.0 mi SSE 13.8 mph - N/A   Scattered Clouds
9:35 AM 32.0 °F 21.2 °F 24.8 °F 75% 29.91 in 10.0 mi South 16.1 mph 20.7 mph N/A   Partly Cloudy
9:55 AM 32.0 °F 22.1 °F 24.8 °F 75% 29.90 in 10.0 mi South 13.8 mph 20.7 mph N/A   Clear
10:15 AM 33.8 °F 22.8 °F 24.8 °F 70% 29.89 in 10.0 mi South 18.4 mph 24.2 mph N/A   Clear
10:35 AM 35.6 °F 24.2 °F 26.6 °F 70% 29.88 in 10.0 mi South 21.9 mph 26.5 mph N/A   Clear
10:55 AM 35.6 °F 25.9 °F 24.8 °F 65% 29.87 in 10.0 mi South 16.1 mph 28.8 mph N/A   Partly Cloudy
11:15 AM 37.4 °F 28.2 °F 26.6 °F 65% 29.85 in 10.0 mi SSE 16.1 mph 24.2 mph N/A   Partly Cloudy
11:35 AM 41.0 °F 32.8 °F 26.6 °F 57% 29.84 in 10.0 mi SSE 16.1 mph 27.6 mph N/A   Partly Cloudy
11:55 AM 41.0 °F 32.8 °F 26.6 °F 57% 29.83 in 10.0 mi South 16.1 mph 28.8 mph N/A   Clear
12:15 PM 42.8 °F 35.4 °F 28.4 °F 57% 29.82 in 10.0 mi South 15.0 mph 21.9 mph N/A   Clear
12:35 PM 44.6 °F 36.4 °F 28.4 °F 53% 29.80 in 10.0 mi South 20.7 mph 29.9 mph N/A   Mostly Cloudy
12:55 PM 46.4 °F 39.5 °F 28.4 °F 50% 29.79 in 10.0 mi South 17.3 mph 27.6 mph N/A   Mostly Cloudy
1:15 PM 48.2 °F - 28.4 °F 46% 29.78 in 10.0 mi South 20.7 mph 31.1 mph N/A   Mostly Cloudy
1:35 PM 48.2 °F - 28.4 °F 46% 29.75 in 10.0 mi South 26.5 mph 35.7 mph N/A   Mostly Cloudy
1:55 PM 50.0 °F - 28.4 °F 43% 29.74 in 10.0 mi South 24.2 mph 32.2 mph N/A   Mostly Cloudy
2:15 PM 53.6 °F - 30.2 °F 41% 29.73 in 10.0 mi South 21.9 mph 32.2 mph N/A   Scattered Clouds
2:35 PM 53.6 °F - 28.4 °F 38% 29.72 in 10.0 mi South 24.2 mph 35.7 mph N/A   Clear
2:55 PM 53.6 °F - 28.4 °F 38% 29.70 in 10.0 mi South 28.8 mph 35.7 mph N/A   Partly Cloudy
3:15 PM 55.4 °F - 30.2 °F 38% 29.69 in 10.0 mi South 29.9 mph 36.8 mph N/A   Clear
3:35 PM 55.4 °F - 30.2 °F 38% 29.69 in 10.0 mi South 26.5 mph 32.2 mph N/A   Clear
3:55 PM 55.4 °F - 32.0 °F 41% 29.68 in 10.0 mi South 16.1 mph 27.6 mph N/A   Clear
4:15 PM 55.4 °F - 32.0 °F 41% 29.66 in 10.0 mi South 20.7 mph 28.8 mph N/A   Clear
4:35 PM 55.4 °F - 30.2 °F 38% 29.66 in 10.0 mi South 24.2 mph 35.7 mph N/A   Clear
4:55 PM 57.2 °F - 28.4 °F 33% 29.65 in 10.0 mi South 21.9 mph 31.1 mph N/A   Partly Cloudy
5:15 PM 55.4 °F - 28.4 °F 36% 29.65 in 10.0 mi SSW 16.1 mph 24.2 mph N/A   Mostly Cloudy
5:35 PM 55.4 °F - 28.4 °F 36% 29.65 in 10.0 mi SSW 16.1 mph 25.3 mph N/A   Overcast
5:55 PM 57.2 °F - 30.2 °F 36% 29.65 in 10.0 mi SSW 19.6 mph 28.8 mph N/A   Overcast
6:15 PM 55.4 °F - 30.2 °F 38% 29.64 in 10.0 mi SSW 12.7 mph 18.4 mph N/A   Mostly Cloudy
6:35 PM 55.4 °F - 30.2 °F 38% 29.64 in 10.0 mi SSW 12.7 mph - N/A   Scattered Clouds
6:55 PM 53.6 °F - 30.2 °F 41% 29.64 in 10.0 mi SSW 11.5 mph - N/A   Mostly Cloudy
7:15 PM 53.6 °F - 30.2 °F 41% 29.64 in 10.0 mi South 12.7 mph - N/A   Overcast
7:35 PM 51.8 °F - 30.2 °F 44% 29.63 in 10.0 mi South 16.1 mph 23.0 mph N/A   Scattered Clouds
7:55 PM 50.0 °F - 30.2 °F 47% 29.64 in 10.0 mi South 15.0 mph 21.9 mph N/A   Partly Cloudy
8:15 PM 50.0 °F - 32.0 °F 50% 29.65 in 10.0 mi SSW 12.7 mph - N/A   Mostly Cloudy
8:35 PM 50.0 °F - 32.0 °F 50% 29.65 in 10.0 mi SSW 13.8 mph - N/A   Scattered Clouds
8:55 PM 50.0 °F - 32.0 °F 50% 29.65 in 10.0 mi SSW 16.1 mph 21.9 mph N/A   Scattered Clouds
9:15 PM 48.2 °F - 32.0 °F 54% 29.65 in 10.0 mi SSW 11.5 mph - N/A   Mostly Cloudy
9:35 PM 48.2 °F - 35.6 °F 62% 29.65 in 10.0 mi SSW 5.8 mph - N/A   Overcast
9:55 PM 46.4 °F 42.9 °F 35.6 °F 66% 29.66 in 10.0 mi SW 6.9 mph - N/A   Mostly Cloudy
10:15 PM 44.6 °F 39.2 °F 35.6 °F 71% 29.68 in 10.0 mi WSW 10.4 mph - N/A Rain Light Rain
10:35 PM 44.6 °F 39.2 °F 35.6 °F 71% 29.69 in 10.0 mi SW 10.4 mph - N/A   Overcast
10:55 PM 44.6 °F 37.8 °F 37.4 °F 76% 29.69 in 8.0 mi WSW 15.0 mph - N/A Rain Light Rain
11:15 PM 44.6 °F 39.7 °F 39.2 °F 81% 29.71 in 7.0 mi WSW 9.2 mph - N/A Rain Light Rain
11:35 PM 44.6 °F 39.7 °F 39.2 °F 81% 29.72 in 5.0 mi West 9.2 mph - N/A Rain Light Rain
11:55 PM 42.8 °F 37.5 °F 41.0 °F 93% 29.71 in 10.0 mi WSW 9.2 mph - 0.01 in Rain Light Rain